This is the latest recevied weather packets stored in our database for station/object XE2G-31. If no packets are shown the sender has not sent any weather packets the latest 10 day(s).
| Time | Temp. | Humidity | Pressure | Rain* | Wind** | Luminosity | Snow |
|---|---|---|---|---|---|---|---|
| 1777633685 | 23.89° C | 35% | 865 hPa | - | - | - | - |
| 1777632738 | 23.33° C | 49% | 866 hPa | - | - | - | - |
| 1777631791 | 21.67° C | 78% | 866 hPa | - | - | - | - |
| 1777630845 | 22.22° C | 78% | 866 hPa | - | - | - | - |
| 1777629898 | 21.11° C | 79% | 866 hPa | - | - | - | - |
| 1777628951 | 22.22° C | 75% | 866 hPa | - | - | - | - |
| 1777628004 | 22.78° C | 70% | 866 hPa | - | - | - | - |
| 1777627057 | 22.78° C | 59% | 866 hPa | - | - | - | - |
| 1777626110 | 22.22° C | 74% | 866 hPa | - | - | - | - |
| 1777625164 | 22.78° C | 73% | 867 hPa | - | - | - | - |
| 1777624217 | 22.22° C | 74% | 867 hPa | - | - | - | - |
| 1777623270 | 22.78° C | 71% | 867 hPa | - | - | - | - |
| 1777622323 | 22.78° C | 73% | 867 hPa | - | - | - | - |
| 1777621376 | 22.78° C | 72% | 867 hPa | - | - | - | - |
| 1777620429 | 22.78° C | 72% | 867 hPa | - | - | - | - |
| 1777619482 | 22.78° C | 72% | 867 hPa | - | - | - | - |
| 1777618536 | 22.22° C | 72% | 867 hPa | - | - | - | - |
| 1777617589 | 22.78° C | 71% | 867 hPa | - | - | - | - |
| 1777616642 | 23.33° C | 70% | 867 hPa | - | - | - | - |
| 1777615695 | 24.44° C | 66% | 867 hPa | - | - | - | - |
| 1777614748 | 25° C | 64% | 867 hPa | - | - | - | - |
| 1777613802 | 24.44° C | 66% | 868 hPa | - | - | - | - |
| 1777612855 | 24.44° C | 67% | 868 hPa | - | - | - | - |
| 1777611908 | 24.44° C | 66% | 868 hPa | - | - | - | - |
| 1777610961 | 25° C | 63% | 868 hPa | - | - | - | - |
* Rain since midnight (hover to see other rain measurements)
** Current wind speed in m/s (hover to see current wind gust speed)